»·PEaware :: SWA818 KLAS-KSNA

SWA818 :: KLAS-KSNA

FLIGHT INFORMATION

Flight Status: Arrived
Operator:
Southwest Airlines
More flights by this operator :: More flights under this callsign
Pilot: Cody B. (17747)
Aircraft: BOEING 737-800
(B738)
More flights by this aircraft type
Origin: KLAS McCarran Intl
United States
Destination: KSNA John Wayne-Orange Co
United States
More flights between these airports :: More routes between these airports
Route: +BOACH8 WHIGG FEYLA DSNEE3
File this flight plan on PilotEdge
Remarks:
Altitude:
(Current/Filed)
28,000ft
Speed:
(Current/Filed)
442kts
Departed: 04-May-18 08:06 PM
Arrived: 04-May-18 08:47 PM
Distance/Time
Traveled:
196nm/0:41
Distance/Time
To Go:
Arrived

Flight Plot

Page will automatically refresh every two minutes.

Flight plan parsing failed; only flown route is shown


Map Options




Map Legend


Flown Route
Filed Route
Departure Airport
Arrival Airport
Navaid (VOR, NDB)
Fix

Horizontal Profiles

Position Reports

Time Latitude Longitude Heading Altitude Ground
Speed
04-May-18 19:22 36.079928 -115.147115 57 2096ft 0kts
04-May-18 19:23 36.079928 -115.147115 57 2096ft 0kts
04-May-18 19:24 36.079928 -115.147115 57 2096ft 0kts
04-May-18 19:25 36.079928 -115.147115 57 2096ft 0kts
04-May-18 19:25 36.079928 -115.147115 57 2096ft 0kts
04-May-18 19:26 36.079928 -115.147115 57 2096ft 0kts
04-May-18 19:27 36.079928 -115.147115 57 2096ft 0kts
04-May-18 19:28 36.079928 -115.147115 57 2096ft 0kts
04-May-18 19:29 36.079928 -115.147115 57 2096ft 0kts
04-May-18 19:30 36.079928 -115.147115 57 2096ft 0kts
04-May-18 19:32 36.079928 -115.147115 57 2096ft 0kts
04-May-18 19:33 36.079928 -115.147115 57 2096ft 0kts
04-May-18 19:33 36.079928 -115.147115 57 2096ft 0kts
04-May-18 19:34 36.079928 -115.147115 57 2096ft 0kts
04-May-18 19:35 36.079928 -115.147115 57 2096ft 0kts
04-May-18 19:36 36.079928 -115.147115 57 2096ft 0kts
04-May-18 19:37 36.079928 -115.147115 57 2096ft 0kts
04-May-18 19:38 36.079928 -115.147115 57 2096ft 0kts
04-May-18 19:39 36.079928 -115.147115 57 2096ft 0kts
04-May-18 19:40 36.079928 -115.147115 57 2096ft 0kts
04-May-18 19:41 36.079928 -115.147115 57 2096ft 0kts
04-May-18 19:42 36.079928 -115.147115 57 2096ft 0kts
04-May-18 19:43 36.079928 -115.147115 57 2096ft 0kts
04-May-18 19:44 36.079928 -115.147115 57 2096ft 0kts
04-May-18 19:45 36.079928 -115.147115 57 2096ft 0kts
04-May-18 19:46 36.079928 -115.147115 57 2096ft 0kts
04-May-18 19:47 36.079928 -115.147116 57 2096ft 0kts
04-May-18 19:48 36.079762 -115.147434 68 2098ft 2kts
04-May-18 19:49 36.079960 -115.147921 155 2099ft 0kts
04-May-18 19:50 36.079963 -115.147923 155 2099ft 0kts
04-May-18 19:51 36.079963 -115.147923 155 2099ft 0kts
04-May-18 19:52 36.079809 -115.147829 153 2100ft 2kts
04-May-18 19:53 36.078667 -115.147052 133 2101ft 6kts
04-May-18 19:54 36.078266 -115.143270 95 2088ft 12kts
04-May-18 19:55 36.078246 -115.139088 90 2076ft 13kts
04-May-18 19:56 36.078248 -115.133866 90 2060ft 15kts
04-May-18 19:57 36.078256 -115.129542 89 2047ft 11kts
04-May-18 19:58 36.078268 -115.125193 90 2039ft 13kts
04-May-18 19:59 36.077537 -115.121648 130 2037ft 2kts
04-May-18 20:00 36.077277 -115.121345 149 2037ft 0kts
04-May-18 20:01 36.077260 -115.121346 177 2037ft 0kts
04-May-18 20:02 36.077260 -115.121346 177 2037ft 0kts
04-May-18 20:03 36.077218 -115.121342 175 2037ft 0kts
04-May-18 20:04 36.076509 -115.121478 231 2038ft 4kts
04-May-18 20:05 36.076340 -115.137486 269 2074ft 149kts
04-May-18 20:06 36.076648 -115.204287 269 4263ft 219kts
04-May-18 20:07 36.042670 -115.273173 200 6709ft 278kts
04-May-18 20:08 35.967493 -115.306150 195 7017ft 284kts
04-May-18 20:09 35.888163 -115.314455 184 9960ft 298kts
04-May-18 20:10 35.800374 -115.312128 172 12694ft 331kts
04-May-18 20:11 35.707148 -115.301096 184 15656ft 347kts
04-May-18 20:12 35.627871 -115.364569 228 18425ft 355kts
04-May-18 20:13 35.561221 -115.453698 229 20764ft 367kts
04-May-18 20:14 35.491433 -115.547677 230 22901ft 379kts
04-May-18 20:15 35.419304 -115.644691 230 24835ft 390kts
04-May-18 20:16 35.347953 -115.740368 229 26526ft 401kts
04-May-18 20:17 35.273449 -115.840129 230 28053ft 411kts
04-May-18 20:18 35.193025 -115.945946 228 28173ft 445kts
04-May-18 20:19 35.105136 -116.056121 228 28165ft 455kts
04-May-18 20:20 35.017062 -116.166603 228 28166ft 455kts
04-May-18 20:21 34.928648 -116.277214 228 28144ft 457kts
04-May-18 20:23 34.846932 -116.380008 228 28124ft 456kts
04-May-18 20:24 34.762096 -116.487852 229 28015ft 419kts
04-May-18 20:25 34.682191 -116.588152 223 25515ft 411kts
04-May-18 20:26 34.607696 -116.660930 220 23415ft 404kts
04-May-18 20:27 34.522036 -116.743886 220 21240ft 388kts
04-May-18 20:28 34.444694 -116.829344 224 19261ft 371kts
04-May-18 20:29 34.371173 -116.914485 224 17054ft 363kts
04-May-18 20:30 34.299508 -116.997234 223 15094ft 351kts
04-May-18 20:31 34.224125 -117.067572 209 13762ft 343kts
04-May-18 20:32 34.140683 -117.122013 203 12956ft 342kts
04-May-18 20:33 34.053865 -117.167429 203 12325ft 339kts
04-May-18 20:34 33.974538 -117.226137 228 11537ft 338kts
04-May-18 20:35 33.916115 -117.307575 229 10252ft 298kts
04-May-18 20:36 33.865206 -117.379766 230 9046ft 274kts
04-May-18 20:37 33.818401 -117.445860 233 8047ft 255kts
04-May-18 20:38 33.793936 -117.522511 268 8005ft 250kts
04-May-18 20:39 33.796232 -117.606463 274 8009ft 250kts
04-May-18 20:40 33.833320 -117.670449 321 6699ft 244kts
04-May-18 20:41 33.878859 -117.725957 273 4711ft 235kts
04-May-18 20:42 33.834077 -117.769844 203 4228ft 214kts
04-May-18 20:43 33.784462 -117.798633 209 3438ft 178kts
04-May-18 20:44 33.746307 -117.824499 205 1833ft 146kts
04-May-18 20:45 33.711274 -117.846366 208 715ft 142kts
04-May-18 20:46 33.677220 -117.867863 207 64ft 103kts
04-May-18 20:47 33.669583 -117.872017 150 64ft 0kts
04-May-18 20:48 33.669119 -117.871104 74 64ft 5kts
04-May-18 20:49 33.670696 -117.869311 40 64ft 8kts
04-May-18 20:50 33.672811 -117.867630 40 64ft 9kts
04-May-18 20:51 33.675030 -117.865902 28 64ft 10kts
04-May-18 20:52 33.675784 -117.865432 27 64ft 1kts
04-May-18 20:53 33.676744 -117.864819 28 64ft 6kts
04-May-18 20:54 33.677385 -117.864401 29 64ft 0kts
04-May-18 20:55 33.677368 -117.864195 107 64ft 2kts
04-May-18 20:56 33.677213 -117.863794 117 64ft 0kts
04-May-18 20:57 33.677165 -117.863682 117 64ft 0kts
04-May-18 20:58 33.677272 -117.863942 115 64ft 2kts
04-May-18 20:59 33.677309 -117.864031 116 64ft 2kts

Navigation Log

Ident Type
Flight plan parsing failed, navigation log unavailable